PWSweather.com
Personal Weather Stations
Station Observations
COONRAPIDS
Minneapolis, MN 55433

Minneapolis, MN 55433

Lat: 45.187721, Lon: -93.36828

Elevation: 898

Station Type: Davis Vantage Pro 2

High Low Average
Temperature 34.3°F1.3°C 28.7°F-1.8°C 31.5°F-0.3°C
Dew Point 26.5°F-3.1°C 23.5°F-4.7°C 25.1°F-3.8°C
Winds 4.6 mph 7.4 kmh Calm Calm 1.0 mph S1.6 kmh S
Wind Gusts 8.1 mph13.0 kmh -- 1.0 mph1.6 kmh
Humidity 85% 68% 77%
Pressure 30.48 in1032.2 mb 30.28 in1025.4 mb -
Precipitation 0.00 in0.0 mm - -
Hour Temp Dew Point Humidity Winds Wind Gusts Pressure Precip Precip Rate Daily Precip Total
12:00 AM 29.7°F-1.3°C 24.9°F-3.9°C 82% Calm Calm 3.5 mph5.6 kmh 30.47 in1031.8 mb - 0.00 in0.0 mm 0.00 in0.0 mm
12:10 AM 29.7°F-1.3°C 24.9°F-3.9°C 82% Calm Calm -- 30.47 in1031.8 mb - 0.00 in0.0 mm 0.00 in0.0 mm
12:20 AM 29.6°F-1.3°C 25.1°F-3.8°C 83% Calm Calm -- 30.47 in1031.8 mb - 0.00 in0.0 mm 0.00 in0.0 mm
12:30 AM 29.5°F-1.4°C 25.3°F-3.7°C 84% Calm Calm 4.6 mph7.4 kmh 30.47 in1031.8 mb - 0.00 in0.0 mm 0.00 in0.0 mm
12:40 AM 29.4°F-1.4°C 25.2°F-3.8°C 84% Calm Calm -- 30.47 in1031.8 mb - 0.00 in0.0 mm 0.00 in0.0 mm
12:50 AM 29.4°F-1.4°C 25.2°F-3.8°C 84% Calm Calm -- 30.47 in1031.8 mb - 0.00 in0.0 mm 0.00 in0.0 mm
01:00 AM 29.3°F-1.5°C 25.1°F-3.8°C 84% Calm Calm -- 30.46 in1031.5 mb - 0.00 in0.0 mm 0.00 in0.0 mm
01:10 AM 29.3°F-1.5°C 25.1°F-3.8°C 84% Calm Calm -- 30.46 in1031.5 mb - 0.00 in0.0 mm 0.00 in0.0 mm
01:20 AM 29.3°F-1.5°C 25.4°F-3.7°C 85% Calm Calm -- 30.46 in1031.5 mb - 0.00 in0.0 mm 0.00 in0.0 mm
01:30 AM 29.3°F-1.5°C 25.4°F-3.7°C 85% Calm Calm -- 30.46 in1031.5 mb - 0.00 in0.0 mm 0.00 in0.0 mm
01:40 AM 29.3°F-1.5°C 25.3°F-3.7°C 85% Calm Calm -- 30.46 in1031.5 mb - 0.00 in0.0 mm 0.00 in0.0 mm
01:50 AM 29.3°F-1.5°C 25.3°F-3.7°C 85% Calm Calm -- 30.46 in1031.5 mb - 0.00 in0.0 mm 0.00 in0.0 mm
02:00 AM 29.2°F-1.6°C 25.3°F-3.7°C 85% Calm Calm -- 30.46 in1031.5 mb - 0.00 in0.0 mm 0.00 in0.0 mm
02:10 AM 29.2°F-1.6°C 25.3°F-3.7°C 85% Calm Calm -- 30.47 in1031.8 mb - 0.00 in0.0 mm 0.00 in0.0 mm
02:20 AM 29.2°F-1.6°C 25.3°F-3.7°C 85% Calm Calm -- 30.47 in1031.8 mb - 0.00 in0.0 mm 0.00 in0.0 mm
02:30 AM 29.2°F-1.6°C 25.3°F-3.7°C 85% Calm Calm -- 30.47 in1031.8 mb - 0.00 in0.0 mm 0.00 in0.0 mm
02:40 AM 29.2°F-1.6°C 25.3°F-3.7°C 85% Calm Calm -- 30.47 in1031.8 mb - 0.00 in0.0 mm 0.00 in0.0 mm
02:50 AM 29.2°F-1.6°C 25.2°F-3.8°C 85% Calm Calm -- 30.47 in1031.8 mb - 0.00 in0.0 mm 0.00 in0.0 mm
03:00 AM 29.1°F-1.6°C 25.2°F-3.8°C 85% Calm Calm -- 30.47 in1031.8 mb - 0.00 in0.0 mm 0.00 in0.0 mm
03:10 AM 29.1°F-1.6°C 25.2°F-3.8°C 85% Calm Calm -- 30.47 in1031.8 mb - 0.00 in0.0 mm 0.00 in0.0 mm
03:20 AM 29.1°F-1.6°C 25.2°F-3.8°C 85% Calm Calm -- 30.48 in1032.2 mb - 0.00 in0.0 mm 0.00 in0.0 mm
03:30 AM 29.0°F-1.7°C 25.1°F-3.8°C 85% Calm Calm -- 30.48 in1032.2 mb - 0.00 in0.0 mm 0.00 in0.0 mm
03:40 AM 29.0°F-1.7°C 25.1°F-3.8°C 85% Calm Calm -- 30.48 in1032.2 mb - 0.00 in0.0 mm 0.00 in0.0 mm
03:50 AM 29.0°F-1.7°C 25.1°F-3.8°C 85% Calm Calm -- 30.48 in1032.2 mb - 0.00 in0.0 mm 0.00 in0.0 mm
04:00 AM 29.0°F-1.7°C 25.1°F-3.8°C 85% Calm Calm -- 30.48 in1032.2 mb - 0.00 in0.0 mm 0.00 in0.0 mm
04:10 AM 29.0°F-1.7°C 25.1°F-3.8°C 85% Calm Calm -- 30.48 in1032.2 mb - 0.00 in0.0 mm 0.00 in0.0 mm
04:20 AM 29.0°F-1.7°C 25.1°F-3.8°C 85% Calm Calm -- 30.47 in1031.8 mb - 0.00 in0.0 mm 0.00 in0.0 mm
04:30 AM 28.9°F-1.7°C 25.0°F-3.9°C 85% Calm Calm -- 30.47 in1031.8 mb - 0.00 in0.0 mm 0.00 in0.0 mm
04:40 AM 28.9°F-1.7°C 25.0°F-3.9°C 85% Calm Calm -- 30.47 in1031.8 mb - 0.00 in0.0 mm 0.00 in0.0 mm
04:50 AM 28.9°F-1.7°C 25.0°F-3.9°C 85% Calm Calm -- 30.47 in1031.8 mb - 0.00 in0.0 mm 0.00 in0.0 mm
05:00 AM 28.9°F-1.7°C 25.0°F-3.9°C 85% Calm Calm -- 30.47 in1031.8 mb - 0.00 in0.0 mm 0.00 in0.0 mm
05:10 AM 28.9°F-1.7°C 25.0°F-3.9°C 85% Calm Calm -- 30.47 in1031.8 mb - 0.00 in0.0 mm 0.00 in0.0 mm
05:20 AM 28.9°F-1.7°C 25.0°F-3.9°C 85% Calm Calm -- 30.47 in1031.8 mb - 0.00 in0.0 mm 0.00 in0.0 mm
05:30 AM 28.9°F-1.7°C 25.0°F-3.9°C 85% Calm Calm -- 30.46 in1031.5 mb - 0.00 in0.0 mm 0.00 in0.0 mm
05:40 AM 28.9°F-1.7°C 25.0°F-3.9°C 85% Calm Calm -- 30.46 in1031.5 mb - 0.00 in0.0 mm 0.00 in0.0 mm
05:50 AM 28.9°F-1.7°C 25.0°F-3.9°C 85% Calm Calm -- 30.46 in1031.5 mb - 0.00 in0.0 mm 0.00 in0.0 mm
06:00 AM 28.9°F-1.7°C 24.7°F-4.1°C 84% Calm Calm -- 30.46 in1031.5 mb - 0.00 in0.0 mm 0.00 in0.0 mm
06:10 AM 29.0°F-1.7°C 24.8°F-4.0°C 84% Calm Calm -- 30.46 in1031.5 mb - 0.00 in0.0 mm 0.00 in0.0 mm
06:20 AM 29.0°F-1.7°C 24.8°F-4.0°C 84% Calm Calm -- 30.46 in1031.5 mb - 0.00 in0.0 mm 0.00 in0.0 mm
06:30 AM 29.0°F-1.7°C 24.8°F-4.0°C 84% Calm Calm -- 30.46 in1031.5 mb - 0.00 in0.0 mm 0.00 in0.0 mm
06:40 AM 29.0°F-1.7°C 24.8°F-4.0°C 84% Calm Calm -- 30.46 in1031.5 mb - 0.00 in0.0 mm 0.00 in0.0 mm
06:50 AM 29.0°F-1.7°C 24.8°F-4.0°C 84% Calm Calm -- 30.46 in1031.5 mb - 0.00 in0.0 mm 0.00 in0.0 mm
07:00 AM 29.0°F-1.7°C 24.8°F-4.0°C 84% Calm Calm -- 30.46 in1031.5 mb - 0.00 in0.0 mm 0.00 in0.0 mm
07:10 AM 29.0°F-1.7°C 24.8°F-4.0°C 84% Calm Calm -- 30.46 in1031.5 mb - 0.00 in0.0 mm 0.00 in0.0 mm
07:20 AM 28.9°F-1.7°C 24.4°F-4.2°C 83% Calm Calm -- 30.46 in1031.5 mb - 0.00 in0.0 mm 0.00 in0.0 mm
07:30 AM 28.9°F-1.7°C 24.4°F-4.2°C 83% Calm Calm -- 30.46 in1031.5 mb - 0.00 in0.0 mm 0.00 in0.0 mm
07:40 AM 28.8°F-1.8°C 24.3°F-4.3°C 83% Calm Calm -- 30.47 in1031.8 mb - 0.00 in0.0 mm 0.00 in0.0 mm
07:50 AM 28.8°F-1.8°C 24.3°F-4.3°C 83% Calm Calm -- 30.47 in1031.8 mb - 0.00 in0.0 mm 0.00 in0.0 mm
08:00 AM 28.8°F-1.8°C 24.3°F-4.3°C 83% Calm Calm -- 30.47 in1031.8 mb - 0.00 in0.0 mm 0.00 in0.0 mm
08:10 AM 28.8°F-1.8°C 24.0°F-4.4°C 82% Calm Calm -- 30.47 in1031.8 mb - 0.00 in0.0 mm 0.00 in0.0 mm
08:20 AM 28.8°F-1.8°C 24.0°F-4.4°C 82% Calm Calm -- 30.47 in1031.8 mb - 0.00 in0.0 mm 0.00 in0.0 mm
08:30 AM 28.8°F-1.8°C 24.0°F-4.4°C 82% Calm Calm -- 30.46 in1031.5 mb - 0.00 in0.0 mm 0.00 in0.0 mm
08:40 AM 28.8°F-1.8°C 24.0°F-4.4°C 82% Calm Calm -- 30.46 in1031.5 mb - 0.00 in0.0 mm 0.00 in0.0 mm
08:50 AM 28.7°F-1.8°C 23.6°F-4.7°C 81% Calm Calm -- 30.46 in1031.5 mb - 0.00 in0.0 mm 0.00 in0.0 mm
09:00 AM 28.7°F-1.8°C 23.6°F-4.7°C 81% Calm Calm -- 30.46 in1031.5 mb - 0.00 in0.0 mm 0.00 in0.0 mm
09:10 AM 28.7°F-1.8°C 23.6°F-4.7°C 81% Calm Calm -- 30.46 in1031.5 mb - 0.00 in0.0 mm 0.00 in0.0 mm
09:20 AM 28.7°F-1.8°C 23.6°F-4.7°C 81% Calm Calm -- 30.46 in1031.5 mb - 0.00 in0.0 mm 0.00 in0.0 mm
09:30 AM 28.8°F-1.8°C 23.7°F-4.6°C 81% Calm Calm -- 30.46 in1031.5 mb - 0.00 in0.0 mm 0.00 in0.0 mm
09:40 AM 28.8°F-1.8°C 23.7°F-4.6°C 81% Calm Calm -- 30.47 in1031.8 mb - 0.00 in0.0 mm 0.00 in0.0 mm
09:50 AM 29.0°F-1.7°C 23.6°F-4.7°C 80% Calm Calm 2.3 mph3.7 kmh 30.47 in1031.8 mb - 0.00 in0.0 mm 0.00 in0.0 mm
10:00 AM 29.1°F-1.6°C 23.7°F-4.6°C 80% Calm Calm -- 30.47 in1031.8 mb - 0.00 in0.0 mm 0.00 in0.0 mm
10:10 AM 29.2°F-1.6°C 23.5°F-4.7°C 79% Calm Calm 2.3 mph3.7 kmh 30.47 in1031.8 mb - 0.00 in0.0 mm 0.00 in0.0 mm
10:20 AM 29.3°F-1.5°C 23.6°F-4.7°C 79% Calm Calm -- 30.47 in1031.8 mb - 0.00 in0.0 mm 0.00 in0.0 mm
11:00 AM 29.8°F-1.2°C 23.8°F-4.6°C 78% Calm Calm 1.2 mph1.9 kmh 30.48 in1032.2 mb - 0.00 in0.0 mm 0.00 in0.0 mm
11:10 AM 29.8°F-1.2°C 23.5°F-4.7°C 77% 2.3 mph S3.7 kmh S 3.5 mph5.6 kmh 30.48 in1032.2 mb - 0.00 in0.0 mm 0.00 in0.0 mm
11:20 AM 29.9°F-1.2°C 23.6°F-4.7°C 77% Calm Calm 3.5 mph5.6 kmh 30.48 in1032.2 mb - 0.00 in0.0 mm 0.00 in0.0 mm
11:30 AM 30.1°F-1.1°C 23.8°F-4.6°C 77% Calm Calm -- 30.47 in1031.8 mb - 0.00 in0.0 mm 0.00 in0.0 mm
11:40 AM 30.2°F-1.0°C 23.5°F-4.7°C 76% 1.2 mph S1.9 kmh S 3.5 mph5.6 kmh 30.47 in1031.8 mb - 0.00 in0.0 mm 0.00 in0.0 mm
11:50 AM 30.4°F-0.9°C 23.8°F-4.6°C 76% 2.3 mph S3.7 kmh S 5.8 mph9.3 kmh 30.46 in1031.5 mb - 0.00 in0.0 mm 0.00 in0.0 mm
12:00 PM 30.7°F-0.7°C 24.0°F-4.4°C 76% Calm Calm -- 30.46 in1031.5 mb - 0.00 in0.0 mm 0.00 in0.0 mm
12:10 PM 30.9°F-0.6°C 24.3°F-4.3°C 76% Calm Calm -- 30.46 in1031.5 mb - 0.00 in0.0 mm 0.00 in0.0 mm
12:20 PM 31.3°F-0.4°C 24.6°F-4.1°C 76% Calm Calm -- 30.45 in1031.2 mb - 0.00 in0.0 mm 0.00 in0.0 mm
12:30 PM 31.4°F-0.3°C 24.7°F-4.1°C 76% 2.3 mph S3.7 kmh S 6.9 mph11.1 kmh 30.45 in1031.2 mb - 0.00 in0.0 mm 0.00 in0.0 mm
12:40 PM 31.5°F-0.3°C 24.8°F-4.0°C 76% Calm Calm -- 30.45 in1031.2 mb - 0.00 in0.0 mm 0.00 in0.0 mm
12:50 PM 31.7°F-0.2°C 25.0°F-3.9°C 76% 2.3 mph S3.7 kmh S 3.5 mph5.6 kmh 30.44 in1030.8 mb - 0.00 in0.0 mm 0.00 in0.0 mm
01:00 PM 31.9°F-0.1°C 25.2°F-3.8°C 76% Calm Calm 3.5 mph5.6 kmh 30.44 in1030.8 mb - 0.00 in0.0 mm 0.00 in0.0 mm
01:10 PM 32.7°F0.4°C 25.3°F-3.7°C 74% Calm Calm -- 30.43 in1030.5 mb - 0.00 in0.0 mm 0.00 in0.0 mm
01:20 PM 33.3°F0.7°C 25.2°F-3.8°C 72% Calm Calm 3.5 mph5.6 kmh 30.42 in1030.1 mb - 0.00 in0.0 mm 0.00 in0.0 mm
01:30 PM 33.7°F0.9°C 24.9°F-3.9°C 70% 3.5 mph S5.6 kmh S 5.8 mph9.3 kmh 30.42 in1030.1 mb - 0.00 in0.0 mm 0.00 in0.0 mm
01:40 PM 33.9°F1.1°C 25.2°F-3.8°C 70% 3.5 mph S5.6 kmh S 4.6 mph7.4 kmh 30.41 in1029.8 mb - 0.00 in0.0 mm 0.00 in0.0 mm
01:50 PM 33.9°F1.1°C 24.5°F-4.2°C 68% 3.5 mph S5.6 kmh S 5.8 mph9.3 kmh 30.41 in1029.8 mb - 0.00 in0.0 mm 0.00 in0.0 mm
02:00 PM 34.0°F1.1°C 24.5°F-4.2°C 68% Calm Calm 4.6 mph7.4 kmh 30.41 in1029.8 mb - 0.00 in0.0 mm 0.00 in0.0 mm
02:10 PM 34.0°F1.1°C 24.5°F-4.2°C 68% 2.3 mph S3.7 kmh S 5.8 mph9.3 kmh 30.40 in1029.5 mb - 0.00 in0.0 mm 0.00 in0.0 mm
02:20 PM 34.0°F1.1°C 24.9°F-3.9°C 69% 1.2 mph SW1.9 kmh SW 3.5 mph5.6 kmh 30.40 in1029.5 mb - 0.00 in0.0 mm 0.00 in0.0 mm
02:30 PM 34.0°F1.1°C 24.5°F-4.2°C 68% 3.5 mph S5.6 kmh S 6.9 mph11.1 kmh 30.40 in1029.5 mb - 0.00 in0.0 mm 0.00 in0.0 mm
02:40 PM 33.9°F1.1°C 24.8°F-4.0°C 69% Calm Calm -- 30.39 in1029.1 mb - 0.00 in0.0 mm 0.00 in0.0 mm
02:50 PM 34.0°F1.1°C 24.9°F-3.9°C 69% 2.3 mph WSW3.7 kmh WSW 3.5 mph5.6 kmh 30.39 in1029.1 mb - 0.00 in0.0 mm 0.00 in0.0 mm
03:00 PM 33.9°F1.1°C 24.8°F-4.0°C 69% 1.2 mph SSW1.9 kmh SSW 3.5 mph5.6 kmh 30.39 in1029.1 mb - 0.00 in0.0 mm 0.00 in0.0 mm
03:10 PM 33.9°F1.1°C 24.8°F-4.0°C 69% 2.3 mph S3.7 kmh S 3.5 mph5.6 kmh 30.39 in1029.1 mb - 0.00 in0.0 mm 0.00 in0.0 mm
03:20 PM 33.9°F1.1°C 24.8°F-4.0°C 69% Calm Calm -- 30.38 in1028.8 mb - 0.00 in0.0 mm 0.00 in0.0 mm
03:30 PM 34.1°F1.2°C 25.0°F-3.9°C 69% 2.3 mph SSW3.7 kmh SSW 3.5 mph5.6 kmh 30.38 in1028.8 mb - 0.00 in0.0 mm 0.00 in0.0 mm
03:40 PM 34.1°F1.2°C 25.0°F-3.9°C 69% 1.2 mph SW1.9 kmh SW -- 30.38 in1028.8 mb - 0.00 in0.0 mm 0.00 in0.0 mm
03:50 PM 34.3°F1.3°C 25.2°F-3.8°C 69% Calm Calm -- 30.38 in1028.8 mb - 0.00 in0.0 mm 0.00 in0.0 mm
04:00 PM 34.3°F1.3°C 25.2°F-3.8°C 69% 1.2 mph SSW1.9 kmh SSW -- 30.38 in1028.8 mb - 0.00 in0.0 mm 0.00 in0.0 mm
04:10 PM 34.2°F1.2°C 25.1°F-3.8°C 69% Calm Calm -- 30.37 in1028.4 mb - 0.00 in0.0 mm 0.00 in0.0 mm
04:20 PM 34.1°F1.2°C 25.3°F-3.7°C 70% 1.2 mph SW1.9 kmh SW -- 30.37 in1028.4 mb - 0.00 in0.0 mm 0.00 in0.0 mm
04:30 PM 34.1°F1.2°C 25.3°F-3.7°C 70% 1.2 mph SW1.9 kmh SW 3.5 mph5.6 kmh 30.37 in1028.4 mb - 0.00 in0.0 mm 0.00 in0.0 mm
04:40 PM 34.0°F1.1°C 25.3°F-3.7°C 70% Calm Calm 2.3 mph3.7 kmh 30.37 in1028.4 mb - 0.00 in0.0 mm 0.00 in0.0 mm
04:50 PM 34.0°F1.1°C 25.6°F-3.6°C 71% Calm Calm -- 30.36 in1028.1 mb - 0.00 in0.0 mm 0.00 in0.0 mm
05:00 PM 34.0°F1.1°C 25.2°F-3.8°C 70% 2.3 mph SSW3.7 kmh SSW 3.5 mph5.6 kmh 30.36 in1028.1 mb - 0.00 in0.0 mm 0.00 in0.0 mm
05:10 PM 33.9°F1.1°C 25.1°F-3.8°C 70% Calm Calm -- 30.36 in1028.1 mb - 0.00 in0.0 mm 0.00 in0.0 mm
05:20 PM 33.9°F1.1°C 25.1°F-3.8°C 70% 1.2 mph SW1.9 kmh SW -- 30.36 in1028.1 mb - 0.00 in0.0 mm 0.00 in0.0 mm
05:30 PM 33.8°F1.0°C 25.0°F-3.9°C 70% Calm Calm -- 30.36 in1028.1 mb - 0.00 in0.0 mm 0.00 in0.0 mm
05:40 PM 33.7°F0.9°C 25.0°F-3.9°C 70% Calm Calm 3.5 mph5.6 kmh 30.36 in1028.1 mb - 0.00 in0.0 mm 0.00 in0.0 mm
05:50 PM 33.7°F0.9°C 25.3°F-3.7°C 71% 1.2 mph SW1.9 kmh SW 4.6 mph7.4 kmh 30.36 in1028.1 mb - 0.00 in0.0 mm 0.00 in0.0 mm
06:00 PM 33.6°F0.9°C 25.2°F-3.8°C 71% Calm Calm -- 30.36 in1028.1 mb - 0.00 in0.0 mm 0.00 in0.0 mm
06:10 PM 33.6°F0.9°C 25.2°F-3.8°C 71% 1.2 mph S1.9 kmh S 3.5 mph5.6 kmh 30.35 in1027.8 mb - 0.00 in0.0 mm 0.00 in0.0 mm
06:20 PM 33.6°F0.9°C 25.2°F-3.8°C 71% Calm Calm -- 30.35 in1027.8 mb - 0.00 in0.0 mm 0.00 in0.0 mm
06:30 PM 33.6°F0.9°C 25.5°F-3.6°C 72% Calm Calm 3.5 mph5.6 kmh 30.35 in1027.8 mb - 0.00 in0.0 mm 0.00 in0.0 mm
06:40 PM 33.6°F0.9°C 25.5°F-3.6°C 72% Calm Calm -- 30.36 in1028.1 mb - 0.00 in0.0 mm 0.00 in0.0 mm
06:50 PM 33.5°F0.8°C 25.4°F-3.7°C 72% Calm Calm -- 30.36 in1028.1 mb - 0.00 in0.0 mm 0.00 in0.0 mm
07:00 PM 33.5°F0.8°C 25.8°F-3.4°C 73% Calm Calm -- 30.35 in1027.8 mb - 0.00 in0.0 mm 0.00 in0.0 mm
07:10 PM 33.4°F0.8°C 25.7°F-3.5°C 73% Calm Calm -- 30.35 in1027.8 mb - 0.00 in0.0 mm 0.00 in0.0 mm
07:20 PM 33.4°F0.8°C 25.7°F-3.5°C 73% Calm Calm -- 30.35 in1027.8 mb - 0.00 in0.0 mm 0.00 in0.0 mm
07:30 PM 33.5°F0.8°C 25.8°F-3.4°C 73% Calm Calm -- 30.35 in1027.8 mb - 0.00 in0.0 mm 0.00 in0.0 mm
07:40 PM 33.5°F0.8°C 25.4°F-3.7°C 72% Calm Calm 2.3 mph3.7 kmh 30.35 in1027.8 mb - 0.00 in0.0 mm 0.00 in0.0 mm
07:50 PM 33.5°F0.8°C 25.4°F-3.7°C 72% Calm Calm -- 30.35 in1027.8 mb - 0.00 in0.0 mm 0.00 in0.0 mm
08:00 PM 33.5°F0.8°C 25.4°F-3.7°C 72% 3.5 mph WSW5.6 kmh WSW 5.8 mph9.3 kmh 30.35 in1027.8 mb - 0.00 in0.0 mm 0.00 in0.0 mm
08:10 PM 33.4°F0.8°C 25.3°F-3.7°C 72% 4.6 mph WSW7.4 kmh WSW 6.9 mph11.1 kmh 30.34 in1027.4 mb - 0.00 in0.0 mm 0.00 in0.0 mm
08:20 PM 33.5°F0.8°C 25.4°F-3.7°C 72% 2.3 mph SSW3.7 kmh SSW 4.6 mph7.4 kmh 30.34 in1027.4 mb - 0.00 in0.0 mm 0.00 in0.0 mm
08:30 PM 33.5°F0.8°C 25.4°F-3.7°C 72% 3.5 mph SW5.6 kmh SW 4.6 mph7.4 kmh 30.34 in1027.4 mb - 0.00 in0.0 mm 0.00 in0.0 mm
08:40 PM 33.5°F0.8°C 25.7°F-3.5°C 73% 1.2 mph SW1.9 kmh SW 2.3 mph3.7 kmh 30.34 in1027.4 mb - 0.00 in0.0 mm 0.00 in0.0 mm
08:50 PM 33.5°F0.8°C 25.7°F-3.5°C 73% 1.2 mph SW1.9 kmh SW 2.3 mph3.7 kmh 30.33 in1027.1 mb - 0.00 in0.0 mm 0.00 in0.0 mm
09:00 PM 33.4°F0.8°C 25.7°F-3.5°C 73% 1.2 mph WSW1.9 kmh WSW 1.2 mph1.9 kmh 30.33 in1027.1 mb - 0.00 in0.0 mm 0.00 in0.0 mm
09:10 PM 33.3°F0.7°C 25.9°F-3.4°C 74% 2.3 mph SW3.7 kmh SW 4.6 mph7.4 kmh 30.32 in1026.8 mb - 0.00 in0.0 mm 0.00 in0.0 mm
09:20 PM 33.3°F0.7°C 25.9°F-3.4°C 74% 1.2 mph SW1.9 kmh SW 2.3 mph3.7 kmh 30.32 in1026.8 mb - 0.00 in0.0 mm 0.00 in0.0 mm
09:30 PM 33.3°F0.7°C 26.2°F-3.2°C 75% 3.5 mph SW5.6 kmh SW 5.8 mph9.3 kmh 30.32 in1026.8 mb - 0.00 in0.0 mm 0.00 in0.0 mm
09:40 PM 33.4°F0.8°C 26.3°F-3.2°C 75% Calm Calm -- 30.32 in1026.8 mb - 0.00 in0.0 mm 0.00 in0.0 mm
09:50 PM 33.4°F0.8°C 26.3°F-3.2°C 75% 2.3 mph WSW3.7 kmh WSW 3.5 mph5.6 kmh 30.32 in1026.8 mb - 0.00 in0.0 mm 0.00 in0.0 mm
10:00 PM 33.3°F0.7°C 26.3°F-3.2°C 75% Calm Calm -- 30.31 in1026.4 mb - 0.00 in0.0 mm 0.00 in0.0 mm
10:10 PM 33.3°F0.7°C 26.2°F-3.2°C 75% Calm Calm -- 30.31 in1026.4 mb - 0.00 in0.0 mm 0.00 in0.0 mm
10:20 PM 33.3°F0.7°C 26.2°F-3.2°C 75% 1.2 mph SW1.9 kmh SW 3.5 mph5.6 kmh 30.31 in1026.4 mb - 0.00 in0.0 mm 0.00 in0.0 mm
10:30 PM 33.4°F0.8°C 26.3°F-3.2°C 75% Calm Calm -- 30.31 in1026.4 mb - 0.00 in0.0 mm 0.00 in0.0 mm
10:40 PM 33.4°F0.8°C 26.3°F-3.2°C 75% Calm Calm 2.3 mph3.7 kmh 30.31 in1026.4 mb - 0.00 in0.0 mm 0.00 in0.0 mm
10:50 PM 33.4°F0.8°C 26.3°F-3.2°C 75% 3.5 mph WSW5.6 kmh WSW 8.1 mph13.0 kmh 30.31 in1026.4 mb - 0.00 in0.0 mm 0.00 in0.0 mm
11:00 PM 33.4°F0.8°C 26.3°F-3.2°C 75% 1.2 mph SW1.9 kmh SW 3.5 mph5.6 kmh 30.31 in1026.4 mb - 0.00 in0.0 mm 0.00 in0.0 mm
11:10 PM 33.4°F0.8°C 26.3°F-3.2°C 75% 2.3 mph WSW3.7 kmh WSW 3.5 mph5.6 kmh 30.31 in1026.4 mb - 0.00 in0.0 mm 0.00 in0.0 mm
11:20 PM 33.4°F0.8°C 26.3°F-3.2°C 75% Calm Calm -- 30.30 in1026.1 mb - 0.00 in0.0 mm 0.00 in0.0 mm
11:30 PM 33.3°F0.7°C 26.3°F-3.2°C 75% Calm Calm -- 30.30 in1026.1 mb - 0.00 in0.0 mm 0.00 in0.0 mm
11:40 PM 33.3°F0.7°C 26.2°F-3.2°C 75% Calm Calm -- 30.29 in1025.7 mb - 0.00 in0.0 mm 0.00 in0.0 mm
11:50 PM 33.2°F0.7°C 26.5°F-3.1°C 76% Calm Calm -- 30.29 in1025.7 mb - 0.00 in0.0 mm 0.00 in0.0 mm